Portoroz, Slovenia
Current Conditions -  °F | °C
As of 12:30 PM on Monday 26 Jan 2015 (Local Time) from LJPZ Reporting Station
Clear Clear  
Wind Chill: 42°   Ceiling: Unl
Heat Index: 46°   Visibility: 6mi
Dew Point: 21°   Wind: 9mph
Humidity: 37%   Direction: 60°ENE
Pressure: 30.24"   Gusts: NA
Location:  45.52°N, 13.58°E
Report Text: LJPZ 261030Z 06008KT 020V100 CAVOK 08/M06 Q1024
Loading
Personal Weather Stations






























Interactive Weather Map New forecast layout! Learn more

10-Day Weather Forecast

Advertisements
Track Severe Weather on mobile